sensor_id;sensor_type;location;lat;lon;timestamp;P1;P2;P0
65574;PMS5003;73096;55.050;73.422;2024-03-29T00:00:02;7.00;5.00;0.25
65574;PMS5003;73096;55.050;73.422;2024-03-29T00:03:15;4.00;3.00;0.00
65574;PMS5003;73096;55.050;73.422;2024-03-29T00:06:17;3.50;3.00;0.00
65574;PMS5003;73096;55.050;73.422;2024-03-29T00:09:19;4.00;3.00;0.00
65574;PMS5003;73096;55.050;73.422;2024-03-29T00:12:23;5.00;3.00;0.00
65574;PMS5003;73096;55.050;73.422;2024-03-29T00:15:26;6.00;6.00;0.00
65574;PMS5003;73096;55.050;73.422;2024-03-29T00:18:29;3.50;3.50;0.00
65574;PMS5003;73096;55.050;73.422;2024-03-29T00:21:31;5.67;5.67;0.00
65574;PMS5003;73096;55.050;73.422;2024-03-29T00:24:33;6.50;6.50;2.00
65574;PMS5003;73096;55.050;73.422;2024-03-29T00:27:36;6.33;6.33;3.00
65574;PMS5003;73096;55.050;73.422;2024-03-29T00:30:40;7.00;7.00;3.00
65574;PMS5003;73096;55.050;73.422;2024-03-29T00:33:43;6.25;6.00;1.00
65574;PMS5003;73096;55.050;73.422;2024-03-29T00:36:46;8.00;6.50;2.50
65574;PMS5003;73096;55.050;73.422;2024-03-29T00:39:49;8.25;6.00;2.00
65574;PMS5003;73096;55.050;73.422;2024-03-29T00:42:51;7.00;6.67;3.00
65574;PMS5003;73096;55.050;73.422;2024-03-29T00:45:53;6.00;6.00;2.00
65574;PMS5003;73096;55.050;73.422;2024-03-29T00:48:55;8.67;6.33;3.00
65574;PMS5003;73096;55.050;73.422;2024-03-29T00:51:58;5.00;3.50;2.00
65574;PMS5003;73096;55.050;73.422;2024-03-29T00:55:01;3.50;3.25;1.00
65574;PMS5003;73096;55.050;73.422;2024-03-29T00:58:03;4.00;4.00;1.00
65574;PMS5003;73096;55.050;73.422;2024-03-29T01:01:07;4.00;4.00;2.00
65574;PMS5003;73096;55.050;73.422;2024-03-29T01:04:09;4.00;4.00;2.00
65574;PMS5003;73096;55.050;73.422;2024-03-29T01:07:12;5.00;3.50;1.00
65574;PMS5003;73096;55.050;73.422;2024-03-29T01:10:18;4.00;3.33;1.00
65574;PMS5003;73096;55.050;73.422;2024-03-29T01:13:21;6.50;6.00;1.00
65574;PMS5003;73096;55.050;73.422;2024-03-29T01:16:24;6.67;6.67;1.33
65574;PMS5003;73096;55.050;73.422;2024-03-29T01:19:27;5.75;4.75;2.00
65574;PMS5003;73096;55.050;73.422;2024-03-29T01:22:30;4.00;4.00;0.00
65574;PMS5003;73096;55.050;73.422;2024-03-29T01:25:33;4.00;3.00;0.00
65574;PMS5003;73096;55.050;73.422;2024-03-29T01:28:36;3.50;3.00;0.00
65574;PMS5003;73096;55.050;73.422;2024-03-29T01:31:39;5.25;4.50;0.50
65574;PMS5003;73096;55.050;73.422;2024-03-29T01:34:42;6.00;6.00;2.00
65574;PMS5003;73096;55.050;73.422;2024-03-29T01:37:44;6.50;6.00;3.00
65574;PMS5003;73096;55.050;73.422;2024-03-29T01:40:46;8.00;7.00;3.00
65574;PMS5003;73096;55.050;73.422;2024-03-29T01:43:49;8.33;7.67;2.00
65574;PMS5003;73096;55.050;73.422;2024-03-29T01:46:52;14.50;13.00;6.00
65574;PMS5003;73096;55.050;73.422;2024-03-29T01:49:55;19.25;15.75;5.00
65574;PMS5003;73096;55.050;73.422;2024-03-29T01:52:57;19.00;17.00;5.75
65574;PMS5003;73096;55.050;73.422;2024-03-29T01:56:01;19.00;16.50;6.00
65574;PMS5003;73096;55.050;73.422;2024-03-29T01:59:05;16.00;15.00;4.00
65574;PMS5003;73096;55.050;73.422;2024-03-29T02:02:11;13.00;9.25;3.00
65574;PMS5003;73096;55.050;73.422;2024-03-29T02:05:15;10.00;5.50;2.00
65574;PMS5003;73096;55.050;73.422;2024-03-29T02:08:17;5.00;3.33;0.00
65574;PMS5003;73096;55.050;73.422;2024-03-29T02:11:21;6.00;6.00;1.75
65574;PMS5003;73096;55.050;73.422;2024-03-29T02:14:25;6.50;5.25;1.50
65574;PMS5003;73096;55.050;73.422;2024-03-29T02:17:28;6.00;4.67;2.00
65574;PMS5003;73096;55.050;73.422;2024-03-29T02:20:31;7.50;6.00;3.00
65574;PMS5003;73096;55.050;73.422;2024-03-29T02:23:35;8.00;7.00;3.00
65574;PMS5003;73096;55.050;73.422;2024-03-29T02:26:38;10.00;9.00;4.00
65574;PMS5003;73096;55.050;73.422;2024-03-29T02:29:44;10.00;10.00;6.00
65574;PMS5003;73096;55.050;73.422;2024-03-29T02:32:48;15.00;12.00;5.00
65574;PMS5003;73096;55.050;73.422;2024-03-29T02:35:50;14.33;14.00;5.67
65574;PMS5003;73096;55.050;73.422;2024-03-29T02:38:54;15.00;13.00;5.00
65574;PMS5003;73096;55.050;73.422;2024-03-29T02:41:58;10.75;8.00;3.00
65574;PMS5003;73096;55.050;73.422;2024-03-29T02:45:00;9.00;7.00;3.00
65574;PMS5003;73096;55.050;73.422;2024-03-29T02:48:02;6.00;6.00;3.00
65574;PMS5003;73096;55.050;73.422;2024-03-29T02:51:05;5.67;5.00;3.00
65574;PMS5003;73096;55.050;73.422;2024-03-29T02:54:08;7.50;5.75;3.00
65574;PMS5003;73096;55.050;73.422;2024-03-29T02:57:12;6.75;5.00;3.00
65574;PMS5003;73096;55.050;73.422;2024-03-29T03:00:15;4.00;4.00;1.00
65574;PMS5003;73096;55.050;73.422;2024-03-29T03:03:17;5.00;5.00;1.00
65574;PMS5003;73096;55.050;73.422;2024-03-29T03:06:23;6.00;5.00;2.00
65574;PMS5003;73096;55.050;73.422;2024-03-29T03:09:26;5.00;5.00;3.00
65574;PMS5003;73096;55.050;73.422;2024-03-29T03:12:46;4.25;4.00;2.00
65574;PMS5003;73096;55.050;73.422;2024-03-29T03:15:50;8.25;7.00;3.00
65574;PMS5003;73096;55.050;73.422;2024-03-29T03:18:53;9.00;8.50;3.00
65574;PMS5003;73096;55.050;73.422;2024-03-29T03:21:56;6.00;5.00;2.00
65574;PMS5003;73096;55.050;73.422;2024-03-29T03:24:58;7.00;5.67;2.67
65574;PMS5003;73096;55.050;73.422;2024-03-29T03:28:01;8.00;7.00;3.00
65574;PMS5003;73096;55.050;73.422;2024-03-29T03:31:05;9.00;7.50;4.00
65574;PMS5003;73096;55.050;73.422;2024-03-29T03:34:09;11.00;8.50;3.75
65574;PMS5003;73096;55.050;73.422;2024-03-29T03:37:11;12.00;8.50;3.00
65574;PMS5003;73096;55.050;73.422;2024-03-29T03:40:13;11.75;7.50;3.00
65574;PMS5003;73096;55.050;73.422;2024-03-29T03:43:16;13.00;8.00;2.75
65574;PMS5003;73096;55.050;73.422;2024-03-29T03:46:19;15.00;11.50;5.75
65574;PMS5003;73096;55.050;73.422;2024-03-29T03:49:22;14.75;12.00;5.00
65574;PMS5003;73096;55.050;73.422;2024-03-29T03:52:25;12.00;9.00;4.00
65574;PMS5003;73096;55.050;73.422;2024-03-29T03:55:29;10.00;9.00;5.00
65574;PMS5003;73096;55.050;73.422;2024-03-29T03:58:31;9.67;8.00;4.00
65574;PMS5003;73096;55.050;73.422;2024-03-29T04:01:34;12.00;7.33;3.33
65574;PMS5003;73096;55.050;73.422;2024-03-29T04:04:36;6.00;4.00;2.00
65574;PMS5003;73096;55.050;73.422;2024-03-29T04:07:40;5.75;5.00;2.00
65574;PMS5003;73096;55.050;73.422;2024-03-29T04:10:42;3.00;3.00;1.00
65574;PMS5003;73096;55.050;73.422;2024-03-29T04:13:44;3.00;3.00;1.00
65574;PMS5003;73096;55.050;73.422;2024-03-29T04:16:47;6.00;6.00;3.00
65574;PMS5003;73096;55.050;73.422;2024-03-29T04:19:49;5.75;5.75;3.00
65574;PMS5003;73096;55.050;73.422;2024-03-29T04:22:51;4.00;4.00;2.00
65574;PMS5003;73096;55.050;73.422;2024-03-29T04:25:54;6.00;6.00;3.00
65574;PMS5003;73096;55.050;73.422;2024-03-29T04:28:57;4.33;4.33;3.00
65574;PMS5003;73096;55.050;73.422;2024-03-29T04:31:59;5.33;4.67;2.00
65574;PMS5003;73096;55.050;73.422;2024-03-29T04:35:01;3.00;3.00;1.00
65574;PMS5003;73096;55.050;73.422;2024-03-29T04:38:05;1.00;1.00;0.00
65574;PMS5003;73096;55.050;73.422;2024-03-29T04:41:07;1.25;0.25;0.00
65574;PMS5003;73096;55.050;73.422;2024-03-29T04:44:11;0.00;0.00;0.00
65574;PMS5003;73096;55.050;73.422;2024-03-29T04:47:13;1.33;0.00;0.00
65574;PMS5003;73096;55.050;73.422;2024-03-29T04:50:17;1.75;0.50;0.00
65574;PMS5003;73096;55.050;73.422;2024-03-29T04:53:20;0.50;0.50;0.00
65574;PMS5003;73096;55.050;73.422;2024-03-29T04:56:22;0.00;0.00;0.00
65574;PMS5003;73096;55.050;73.422;2024-03-29T04:59:24;1.00;1.00;0.00
65574;PMS5003;73096;55.050;73.422;2024-03-29T05:02:26;3.00;3.00;0.00
65574;PMS5003;73096;55.050;73.422;2024-03-29T05:05:30;3.00;3.00;0.00
65574;PMS5003;73096;55.050;73.422;2024-03-29T05:08:32;4.00;4.00;0.00
65574;PMS5003;73096;55.050;73.422;2024-03-29T05:11:34;3.00;3.00;0.00
65574;PMS5003;73096;55.050;73.422;2024-03-29T05:14:38;2.50;1.25;0.00
65574;PMS5003;73096;55.050;73.422;2024-03-29T05:17:40;3.00;2.33;1.00
65574;PMS5003;73096;55.050;73.422;2024-03-29T05:20:44;2.00;2.00;0.00
65574;PMS5003;73096;55.050;73.422;2024-03-29T05:23:51;1.00;1.00;0.00
65574;PMS5003;73096;55.050;73.422;2024-03-29T05:26:53;1.00;1.00;0.00
65574;PMS5003;73096;55.050;73.422;2024-03-29T05:29:55;0.00;0.00;0.00
65574;PMS5003;73096;55.050;73.422;2024-03-29T05:32:58;0.00;0.00;0.00
65574;PMS5003;73096;55.050;73.422;2024-03-29T05:36:00;0.00;0.00;0.00
65574;PMS5003;73096;55.050;73.422;2024-03-29T05:39:03;0.00;0.00;0.00
65574;PMS5003;73096;55.050;73.422;2024-03-29T05:42:06;0.00;0.00;0.00
65574;PMS5003;73096;55.050;73.422;2024-03-29T05:45:21;0.50;0.25;0.00
65574;PMS5003;73096;55.050;73.422;2024-03-29T05:48:24;0.00;0.00;0.00
65574;PMS5003;73096;55.050;73.422;2024-03-29T05:51:26;1.00;0.75;0.00
65574;PMS5003;73096;55.050;73.422;2024-03-29T05:54:29;0.00;0.00;0.00
65574;PMS5003;73096;55.050;73.422;2024-03-29T05:57:31;0.00;0.00;0.00
65574;PMS5003;73096;55.050;73.422;2024-03-29T06:00:36;0.00;0.00;0.00
65574;PMS5003;73096;55.050;73.422;2024-03-29T06:03:39;0.00;0.00;0.00
65574;PMS5003;73096;55.050;73.422;2024-03-29T06:06:41;0.75;0.00;0.00
65574;PMS5003;73096;55.050;73.422;2024-03-29T06:09:43;3.00;2.00;0.00
65574;PMS5003;73096;55.050;73.422;2024-03-29T06:12:45;0.00;0.00;0.00
65574;PMS5003;73096;55.050;73.422;2024-03-29T06:15:48;0.00;0.00;0.00
65574;PMS5003;73096;55.050;73.422;2024-03-29T06:19:10;1.00;0.00;0.00
65574;PMS5003;73096;55.050;73.422;2024-03-29T06:22:13;0.00;0.00;0.00
65574;PMS5003;73096;55.050;73.422;2024-03-29T06:25:16;0.00;0.00;0.00
65574;PMS5003;73096;55.050;73.422;2024-03-29T06:28:18;0.00;0.00;0.00
65574;PMS5003;73096;55.050;73.422;2024-03-29T06:31:20;0.00;0.00;0.00
65574;PMS5003;73096;55.050;73.422;2024-03-29T06:34:24;0.00;0.00;0.00
65574;PMS5003;73096;55.050;73.422;2024-03-29T06:37:27;0.00;0.00;0.00
65574;PMS5003;73096;55.050;73.422;2024-03-29T06:40:31;0.00;0.00;0.00
65574;PMS5003;73096;55.050;73.422;2024-03-29T06:43:34;0.00;0.00;0.00
65574;PMS5003;73096;55.050;73.422;2024-03-29T06:46:37;0.00;0.00;0.00
65574;PMS5003;73096;55.050;73.422;2024-03-29T06:49:40;0.00;0.00;0.00
65574;PMS5003;73096;55.050;73.422;2024-03-29T06:52:43;0.00;0.00;0.00
65574;PMS5003;73096;55.050;73.422;2024-03-29T06:55:45;0.00;0.00;0.00
65574;PMS5003;73096;55.050;73.422;2024-03-29T06:58:48;0.00;0.00;0.00
65574;PMS5003;73096;55.050;73.422;2024-03-29T07:01:50;0.00;0.00;0.00
65574;PMS5003;73096;55.050;73.422;2024-03-29T07:04:57;0.00;0.00;0.00
65574;PMS5003;73096;55.050;73.422;2024-03-29T07:07:59;0.00;0.00;0.00
65574;PMS5003;73096;55.050;73.422;2024-03-29T07:11:03;0.00;0.00;0.00
65574;PMS5003;73096;55.050;73.422;2024-03-29T07:14:06;0.00;0.00;0.00
65574;PMS5003;73096;55.050;73.422;2024-03-29T07:17:08;0.00;0.00;0.00
65574;PMS5003;73096;55.050;73.422;2024-03-29T07:20:10;0.00;0.00;0.00
65574;PMS5003;73096;55.050;73.422;2024-03-29T07:23:13;0.00;0.00;0.00
65574;PMS5003;73096;55.050;73.422;2024-03-29T07:26:17;0.00;0.00;0.00
65574;PMS5003;73096;55.050;73.422;2024-03-29T07:29:20;0.75;0.25;0.00
65574;PMS5003;73096;55.050;73.422;2024-03-29T07:32:23;0.00;0.00;0.00
65574;PMS5003;73096;55.050;73.422;2024-03-29T07:35:25;0.00;0.00;0.00
65574;PMS5003;73096;55.050;73.422;2024-03-29T07:38:29;0.00;0.00;0.00
65574;PMS5003;73096;55.050;73.422;2024-03-29T07:41:32;0.00;0.00;0.00
65574;PMS5003;73096;55.050;73.422;2024-03-29T07:44:35;0.00;0.00;0.00
65574;PMS5003;73096;55.050;73.422;2024-03-29T07:47:37;1.00;1.00;0.00
65574;PMS5003;73096;55.050;73.422;2024-03-29T07:50:40;1.25;1.00;0.00
65574;PMS5003;73096;55.050;73.422;2024-03-29T07:53:42;1.00;0.00;0.00
65574;PMS5003;73096;55.050;73.422;2024-03-29T07:56:46;0.00;0.00;0.00
65574;PMS5003;73096;55.050;73.422;2024-03-29T07:59:50;0.00;0.00;0.00
65574;PMS5003;73096;55.050;73.422;2024-03-29T08:02:52;0.00;0.00;0.00
65574;PMS5003;73096;55.050;73.422;2024-03-29T08:05:59;0.00;0.00;0.00
65574;PMS5003;73096;55.050;73.422;2024-03-29T08:09:01;0.00;0.00;0.00
65574;PMS5003;73096;55.050;73.422;2024-03-29T08:12:04;0.00;0.00;0.00
65574;PMS5003;73096;55.050;73.422;2024-03-29T08:15:07;0.00;0.00;0.00
65574;PMS5003;73096;55.050;73.422;2024-03-29T08:18:10;0.00;0.00;0.00
65574;PMS5003;73096;55.050;73.422;2024-03-29T08:21:14;0.00;0.00;0.00
65574;PMS5003;73096;55.050;73.422;2024-03-29T08:24:17;1.00;0.00;0.00
65574;PMS5003;73096;55.050;73.422;2024-03-29T08:27:19;0.00;0.00;0.00
65574;PMS5003;73096;55.050;73.422;2024-03-29T08:30:21;0.00;0.00;0.00
65574;PMS5003;73096;55.050;73.422;2024-03-29T08:33:24;0.00;0.00;0.00
65574;PMS5003;73096;55.050;73.422;2024-03-29T08:36:27;0.00;0.00;0.00
65574;PMS5003;73096;55.050;73.422;2024-03-29T08:39:30;0.00;0.00;0.00
65574;PMS5003;73096;55.050;73.422;2024-03-29T08:42:32;0.00;0.00;0.00
65574;PMS5003;73096;55.050;73.422;2024-03-29T08:45:40;0.00;0.00;0.00
65574;PMS5003;73096;55.050;73.422;2024-03-29T08:48:43;0.00;0.00;0.00
65574;PMS5003;73096;55.050;73.422;2024-03-29T08:51:46;0.00;0.00;0.00
65574;PMS5003;73096;55.050;73.422;2024-03-29T08:54:48;0.00;0.00;0.00
65574;PMS5003;73096;55.050;73.422;2024-03-29T08:57:50;0.00;0.00;0.00
65574;PMS5003;73096;55.050;73.422;2024-03-29T09:00:53;0.00;0.00;0.00
65574;PMS5003;73096;55.050;73.422;2024-03-29T09:03:56;0.00;0.00;0.00
65574;PMS5003;73096;55.050;73.422;2024-03-29T09:07:00;0.00;0.00;0.00
65574;PMS5003;73096;55.050;73.422;2024-03-29T09:10:05;0.00;0.00;0.00
65574;PMS5003;73096;55.050;73.422;2024-03-29T09:13:07;0.00;0.00;0.00
65574;PMS5003;73096;55.050;73.422;2024-03-29T09:16:11;0.00;0.00;0.00
65574;PMS5003;73096;55.050;73.422;2024-03-29T09:19:13;0.00;0.00;0.00
65574;PMS5003;73096;55.050;73.422;2024-03-29T09:22:19;0.00;0.00;0.00
65574;PMS5003;73096;55.050;73.422;2024-03-29T09:25:22;1.00;0.00;0.00
65574;PMS5003;73096;55.050;73.422;2024-03-29T09:28:25;0.00;0.00;0.00
65574;PMS5003;73096;55.050;73.422;2024-03-29T09:31:28;0.00;0.00;0.00
65574;PMS5003;73096;55.050;73.422;2024-03-29T09:34:30;0.00;0.00;0.00
65574;PMS5003;73096;55.050;73.422;2024-03-29T09:37:33;0.00;0.00;0.00
65574;PMS5003;73096;55.050;73.422;2024-03-29T09:40:39;0.00;0.00;0.00
65574;PMS5003;73096;55.050;73.422;2024-03-29T09:43:42;0.00;0.00;0.00
65574;PMS5003;73096;55.050;73.422;2024-03-29T09:46:44;1.00;1.00;0.00
65574;PMS5003;73096;55.050;73.422;2024-03-29T09:49:48;1.00;0.00;0.00
65574;PMS5003;73096;55.050;73.422;2024-03-29T09:52:53;0.00;0.00;0.00
65574;PMS5003;73096;55.050;73.422;2024-03-29T09:55:56;1.00;0.00;0.00
65574;PMS5003;73096;55.050;73.422;2024-03-29T09:58:59;0.50;0.00;0.00
65574;PMS5003;73096;55.050;73.422;2024-03-29T10:02:04;0.00;0.00;0.00
65574;PMS5003;73096;55.050;73.422;2024-03-29T10:05:12;0.00;0.00;0.00
65574;PMS5003;73096;55.050;73.422;2024-03-29T10:08:15;2.00;2.00;0.00
65574;PMS5003;73096;55.050;73.422;2024-03-29T10:11:18;1.00;1.00;0.00
65574;PMS5003;73096;55.050;73.422;2024-03-29T10:14:21;0.00;0.00;0.00
65574;PMS5003;73096;55.050;73.422;2024-03-29T10:17:26;1.00;1.00;0.00
65574;PMS5003;73096;55.050;73.422;2024-03-29T10:20:28;1.00;1.00;0.00
65574;PMS5003;73096;55.050;73.422;2024-03-29T10:23:32;0.00;0.00;0.00
65574;PMS5003;73096;55.050;73.422;2024-03-29T10:26:36;0.00;0.00;0.00
65574;PMS5003;73096;55.050;73.422;2024-03-29T10:29:39;0.00;0.00;0.00
65574;PMS5003;73096;55.050;73.422;2024-03-29T10:32:42;0.00;0.00;0.00
65574;PMS5003;73096;55.050;73.422;2024-03-29T10:35:44;0.00;0.00;0.00
65574;PMS5003;73096;55.050;73.422;2024-03-29T10:38:46;0.00;0.00;0.00
65574;PMS5003;73096;55.050;73.422;2024-03-29T10:41:49;0.00;0.00;0.00
65574;PMS5003;73096;55.050;73.422;2024-03-29T10:44:52;0.00;0.00;0.00
65574;PMS5003;73096;55.050;73.422;2024-03-29T10:47:58;0.00;0.00;0.00
65574;PMS5003;73096;55.050;73.422;2024-03-29T10:51:02;0.00;0.00;0.00
65574;PMS5003;73096;55.050;73.422;2024-03-29T10:54:08;0.00;0.00;0.00
65574;PMS5003;73096;55.050;73.422;2024-03-29T10:57:12;0.00;0.00;0.00
65574;PMS5003;73096;55.050;73.422;2024-03-29T11:00:18;1.00;0.00;0.00
65574;PMS5003;73096;55.050;73.422;2024-03-29T11:03:30;1.00;0.00;0.00
65574;PMS5003;73096;55.050;73.422;2024-03-29T11:06:34;1.00;1.00;0.00
65574;PMS5003;73096;55.050;73.422;2024-03-29T11:09:40;1.33;1.00;0.00
65574;PMS5003;73096;55.050;73.422;2024-03-29T11:12:47;1.00;0.00;0.00
65574;PMS5003;73096;55.050;73.422;2024-03-29T11:15:53;0.00;0.00;0.00
65574;PMS5003;73096;55.050;73.422;2024-03-29T11:18:56;0.00;0.00;0.00
65574;PMS5003;73096;55.050;73.422;2024-03-29T11:21:59;0.00;0.00;0.00
65574;PMS5003;73096;55.050;73.422;2024-03-29T11:25:02;0.00;0.00;0.00
65574;PMS5003;73096;55.050;73.422;2024-03-29T11:28:07;0.00;0.00;0.00
65574;PMS5003;73096;55.050;73.422;2024-03-29T11:31:16;0.00;0.00;0.00
65574;PMS5003;73096;55.050;73.422;2024-03-29T11:34:19;1.00;1.00;0.00
65574;PMS5003;73096;55.050;73.422;2024-03-29T11:37:29;0.50;0.50;0.00
65574;PMS5003;73096;55.050;73.422;2024-03-29T11:40:32;1.00;1.00;0.00
65574;PMS5003;73096;55.050;73.422;2024-03-29T11:43:34;3.00;3.00;0.00
65574;PMS5003;73096;55.050;73.422;2024-03-29T11:46:37;3.00;3.00;0.00
65574;PMS5003;73096;55.050;73.422;2024-03-29T11:49:39;1.00;1.00;0.00
65574;PMS5003;73096;55.050;73.422;2024-03-29T11:52:41;0.00;0.00;0.00
65574;PMS5003;73096;55.050;73.422;2024-03-29T11:55:44;0.00;0.00;0.00
65574;PMS5003;73096;55.050;73.422;2024-03-29T11:58:47;0.25;0.00;0.00
65574;PMS5003;73096;55.050;73.422;2024-03-29T12:01:51;1.00;1.00;0.00
65574;PMS5003;73096;55.050;73.422;2024-03-29T12:04:53;2.00;1.00;0.00
65574;PMS5003;73096;55.050;73.422;2024-03-29T12:07:56;2.00;0.00;0.00
65574;PMS5003;73096;55.050;73.422;2024-03-29T12:11:00;2.50;1.00;0.00
65574;PMS5003;73096;55.050;73.422;2024-03-29T12:14:10;3.00;1.00;0.00
65574;PMS5003;73096;55.050;73.422;2024-03-29T12:17:14;2.00;1.75;0.00
65574;PMS5003;73096;55.050;73.422;2024-03-29T12:20:38;0.00;0.00;0.00
65574;PMS5003;73096;55.050;73.422;2024-03-29T12:24:01;0.00;0.00;0.00
65574;PMS5003;73096;55.050;73.422;2024-03-29T12:27:05;2.75;2.00;0.00
65574;PMS5003;73096;55.050;73.422;2024-03-29T12:30:07;1.00;1.00;0.00
65574;PMS5003;73096;55.050;73.422;2024-03-29T12:33:13;3.00;3.00;0.00
65574;PMS5003;73096;55.050;73.422;2024-03-29T12:36:18;2.00;2.00;0.00
65574;PMS5003;73096;55.050;73.422;2024-03-29T12:39:22;3.00;3.00;0.00
65574;PMS5003;73096;55.050;73.422;2024-03-29T12:42:40;2.00;2.00;0.00
65574;PMS5003;73096;55.050;73.422;2024-03-29T12:45:42;2.00;2.00;0.00
65574;PMS5003;73096;55.050;73.422;2024-03-29T12:48:46;1.00;1.00;0.00
65574;PMS5003;73096;55.050;73.422;2024-03-29T12:51:48;1.25;1.00;0.00
65574;PMS5003;73096;55.050;73.422;2024-03-29T12:54:51;0.00;0.00;0.00
65574;PMS5003;73096;55.050;73.422;2024-03-29T12:58:11;2.00;0.67;0.00
65574;PMS5003;73096;55.050;73.422;2024-03-29T13:01:33;3.00;2.00;0.00
65574;PMS5003;73096;55.050;73.422;2024-03-29T13:04:36;2.33;2.00;0.00
65574;PMS5003;73096;55.050;73.422;2024-03-29T13:07:40;3.00;3.00;1.00
65574;PMS5003;73096;55.050;73.422;2024-03-29T13:10:43;5.00;4.00;2.00
65574;PMS5003;73096;55.050;73.422;2024-03-29T13:13:46;3.00;3.00;1.00
65574;PMS5003;73096;55.050;73.422;2024-03-29T13:16:49;3.00;3.00;1.00
65574;PMS5003;73096;55.050;73.422;2024-03-29T13:19:51;2.00;2.00;1.00
65574;PMS5003;73096;55.050;73.422;2024-03-29T13:22:54;3.00;3.00;1.00
65574;PMS5003;73096;55.050;73.422;2024-03-29T13:25:57;4.00;4.00;1.00
65574;PMS5003;73096;55.050;73.422;2024-03-29T13:29:01;5.00;4.00;2.00
65574;PMS5003;73096;55.050;73.422;2024-03-29T13:32:03;4.75;3.25;2.00
65574;PMS5003;73096;55.050;73.422;2024-03-29T13:35:06;4.00;4.00;1.75
65574;PMS5003;73096;55.050;73.422;2024-03-29T13:38:11;5.00;5.00;1.00
65574;PMS5003;73096;55.050;73.422;2024-03-29T13:41:30;6.00;6.00;2.00
65574;PMS5003;73096;55.050;73.422;2024-03-29T13:44:32;4.00;3.00;1.00
65574;PMS5003;73096;55.050;73.422;2024-03-29T13:47:36;5.00;4.00;1.00
65574;PMS5003;73096;55.050;73.422;2024-03-29T13:50:40;4.75;4.00;2.00
65574;PMS5003;73096;55.050;73.422;2024-03-29T13:53:43;4.00;3.00;2.00
65574;PMS5003;73096;55.050;73.422;2024-03-29T13:56:46;4.00;4.00;2.00
65574;PMS5003;73096;55.050;73.422;2024-03-29T13:59:48;7.00;6.00;2.00
65574;PMS5003;73096;55.050;73.422;2024-03-29T14:02:52;5.00;4.00;1.50
65574;PMS5003;73096;55.050;73.422;2024-03-29T14:05:55;4.25;4.25;2.00
65574;PMS5003;73096;55.050;73.422;2024-03-29T14:09:14;6.00;5.00;1.00
65574;PMS5003;73096;55.050;73.422;2024-03-29T14:12:16;6.00;6.00;3.00
65574;PMS5003;73096;55.050;73.422;2024-03-29T14:15:20;6.25;6.00;3.00
65574;PMS5003;73096;55.050;73.422;2024-03-29T14:18:22;5.75;5.75;3.00
65574;PMS5003;73096;55.050;73.422;2024-03-29T14:21:25;5.00;4.00;3.00
65574;PMS5003;73096;55.050;73.422;2024-03-29T14:24:27;6.50;6.00;3.00
65574;PMS5003;73096;55.050;73.422;2024-03-29T14:27:29;5.50;5.50;3.00
65574;PMS5003;73096;55.050;73.422;2024-03-29T14:30:32;5.00;5.00;3.00
65574;PMS5003;73096;55.050;73.422;2024-03-29T14:33:36;6.00;6.00;2.50
65574;PMS5003;73096;55.050;73.422;2024-03-29T14:36:38;9.50;6.00;3.00
65574;PMS5003;73096;55.050;73.422;2024-03-29T14:39:42;7.25;6.25;3.00
65574;PMS5003;73096;55.050;73.422;2024-03-29T14:42:45;9.00;9.00;3.25
65574;PMS5003;73096;55.050;73.422;2024-03-29T14:45:48;12.00;9.00;3.75
65574;PMS5003;73096;55.050;73.422;2024-03-29T14:48:52;12.00;6.00;3.00
65574;PMS5003;73096;55.050;73.422;2024-03-29T14:51:54;9.00;6.00;4.00
65574;PMS5003;73096;55.050;73.422;2024-03-29T14:54:58;10.00;7.00;3.00
65574;PMS5003;73096;55.050;73.422;2024-03-29T14:58:00;10.00;5.75;3.00
65574;PMS5003;73096;55.050;73.422;2024-03-29T15:01:03;7.00;6.00;3.00
65574;PMS5003;73096;55.050;73.422;2024-03-29T15:04:06;5.75;5.00;3.00
65574;PMS5003;73096;55.050;73.422;2024-03-29T15:07:08;6.00;5.25;3.00
65574;PMS5003;73096;55.050;73.422;2024-03-29T15:10:10;6.00;6.00;3.25
65574;PMS5003;73096;55.050;73.422;2024-03-29T15:13:12;5.33;4.00;3.00
65574;PMS5003;73096;55.050;73.422;2024-03-29T15:16:14;3.00;3.00;2.00
65574;PMS5003;73096;55.050;73.422;2024-03-29T15:19:17;3.00;3.00;2.00
65574;PMS5003;73096;55.050;73.422;2024-03-29T15:22:19;6.25;6.00;3.00
65574;PMS5003;73096;55.050;73.422;2024-03-29T15:25:21;6.00;4.50;1.00
65574;PMS5003;73096;55.050;73.422;2024-03-29T15:28:25;5.50;5.00;2.00
65574;PMS5003;73096;55.050;73.422;2024-03-29T15:31:46;6.00;6.00;1.00
65574;PMS5003;73096;55.050;73.422;2024-03-29T15:34:49;6.25;6.00;1.00
65574;PMS5003;73096;55.050;73.422;2024-03-29T15:37:51;6.50;6.00;2.00
65574;PMS5003;73096;55.050;73.422;2024-03-29T15:40:54;8.00;7.00;3.00
65574;PMS5003;73096;55.050;73.422;2024-03-29T15:43:57;6.00;5.00;3.00
65574;PMS5003;73096;55.050;73.422;2024-03-29T15:47:01;6.00;5.00;3.00
65574;PMS5003;73096;55.050;73.422;2024-03-29T15:50:04;6.00;6.00;3.00
65574;PMS5003;73096;55.050;73.422;2024-03-29T15:53:06;9.00;7.00;3.00
65574;PMS5003;73096;55.050;73.422;2024-03-29T15:56:09;6.00;6.00;3.00
65574;PMS5003;73096;55.050;73.422;2024-03-29T15:59:11;6.50;6.00;3.00
65574;PMS5003;73096;55.050;73.422;2024-03-29T16:02:14;6.00;5.00;3.00
65574;PMS5003;73096;55.050;73.422;2024-03-29T16:05:17;6.00;5.00;3.00
65574;PMS5003;73096;55.050;73.422;2024-03-29T16:08:20;6.00;6.00;3.00
65574;PMS5003;73096;55.050;73.422;2024-03-29T16:11:22;6.00;5.00;3.00
65574;PMS5003;73096;55.050;73.422;2024-03-29T16:14:25;6.00;6.00;3.00
65574;PMS5003;73096;55.050;73.422;2024-03-29T16:17:30;6.00;6.00;3.00
65574;PMS5003;73096;55.050;73.422;2024-03-29T16:20:33;6.00;6.00;3.00
65574;PMS5003;73096;55.050;73.422;2024-03-29T16:23:35;6.25;6.00;2.00
65574;PMS5003;73096;55.050;73.422;2024-03-29T16:26:37;4.00;4.00;2.33
65574;PMS5003;73096;55.050;73.422;2024-03-29T16:29:41;5.00;4.00;2.00
65574;PMS5003;73096;55.050;73.422;2024-03-29T16:32:44;4.00;3.00;2.00
65574;PMS5003;73096;55.050;73.422;2024-03-29T16:35:46;3.25;3.00;2.00
65574;PMS5003;73096;55.050;73.422;2024-03-29T16:38:48;5.00;4.67;1.00
65574;PMS5003;73096;55.050;73.422;2024-03-29T16:41:51;4.75;4.00;2.00
65574;PMS5003;73096;55.050;73.422;2024-03-29T16:44:56;3.00;3.00;2.00
65574;PMS5003;73096;55.050;73.422;2024-03-29T16:47:58;3.00;3.00;1.00
65574;PMS5003;73096;55.050;73.422;2024-03-29T16:51:00;3.00;3.00;0.00
65574;PMS5003;73096;55.050;73.422;2024-03-29T16:54:02;3.00;3.00;0.00
65574;PMS5003;73096;55.050;73.422;2024-03-29T16:57:06;3.25;3.25;2.00
65574;PMS5003;73096;55.050;73.422;2024-03-29T17:00:08;3.00;3.00;2.00
65574;PMS5003;73096;55.050;73.422;2024-03-29T17:03:13;3.00;3.00;1.00
65574;PMS5003;73096;55.050;73.422;2024-03-29T17:06:15;2.00;2.00;1.00
65574;PMS5003;73096;55.050;73.422;2024-03-29T17:09:33;3.75;3.75;2.00
65574;PMS5003;73096;55.050;73.422;2024-03-29T17:12:36;3.00;3.00;1.00
65574;PMS5003;73096;55.050;73.422;2024-03-29T17:15:39;3.00;3.00;1.00
65574;PMS5003;73096;55.050;73.422;2024-03-29T17:18:42;3.00;3.00;1.00
65574;PMS5003;73096;55.050;73.422;2024-03-29T17:21:44;3.00;3.00;0.00
65574;PMS5003;73096;55.050;73.422;2024-03-29T17:24:47;3.00;3.00;0.00
65574;PMS5003;73096;55.050;73.422;2024-03-29T17:27:50;3.00;3.00;0.00
65574;PMS5003;73096;55.050;73.422;2024-03-29T17:30:52;3.00;3.00;0.00
65574;PMS5003;73096;55.050;73.422;2024-03-29T17:33:55;3.00;3.00;0.00
65574;PMS5003;73096;55.050;73.422;2024-03-29T17:36:58;3.00;2.00;1.00